createdAt,value
2022-10-31T00:01:13.232Z,84.26
2022-10-31T00:03:41.575Z,84.40
2022-10-31T00:06:11.055Z,84.35
2022-10-31T00:08:39.391Z,84.23
2022-10-31T00:11:12.831Z,84.21
2022-10-31T00:13:41.240Z,84.51
2022-10-31T00:16:16.329Z,84.52
2022-10-31T00:18:44.773Z,84.41
2022-10-31T00:21:13.958Z,84.17
2022-10-31T00:23:42.341Z,84.30
2022-10-31T00:26:12.156Z,83.95
2022-10-31T00:28:40.637Z,84.19
2022-10-31T00:31:10.897Z,84.25
2022-10-31T00:33:40.818Z,84.28
2022-10-31T00:36:13.316Z,84.51
2022-10-31T00:38:42.820Z,84.59
2022-10-31T00:41:12.832Z,84.60
2022-10-31T00:43:43.263Z,84.81
2022-10-31T00:46:11.730Z,84.92
2022-10-31T00:48:40.052Z,84.91
2022-10-31T00:51:09.406Z,84.75
2022-10-31T00:53:38.014Z,84.74
2022-10-31T00:56:08.152Z,84.55
2022-10-31T00:58:38.032Z,84.32
2022-10-31T01:01:06.719Z,84.62
2022-10-31T01:03:36.808Z,84.84
2022-10-31T01:06:08.036Z,84.85
2022-10-31T01:08:37.133Z,84.84
2022-10-31T01:11:09.305Z,84.93
2022-10-31T01:13:39.373Z,84.66
2022-10-31T01:16:09.829Z,84.79
2022-10-31T01:18:38.212Z,84.78
2022-10-31T01:21:08.022Z,84.58
2022-10-31T01:23:36.534Z,84.24
2022-10-31T01:26:08.793Z,84.05
2022-10-31T01:28:40.403Z,84.20
2022-10-31T01:31:10.435Z,84.40
2022-10-31T01:33:39.980Z,84.24
2022-10-31T01:36:17.476Z,84.17
2022-10-31T01:38:46.280Z,83.99
2022-10-31T01:41:17.006Z,84.33
2022-10-31T01:43:50.111Z,84.06
2022-10-31T01:46:22.755Z,84.29
2022-10-31T01:48:52.050Z,84.22
2022-10-31T01:51:24.432Z,84.17
2022-10-31T01:53:56.537Z,83.87
2022-10-31T01:56:25.097Z,84.06
2022-10-31T01:58:57.061Z,84.15
2022-10-31T02:01:25.907Z,83.68
2022-10-31T02:03:54.632Z,84.03
2022-10-31T02:06:35.962Z,84.13
2022-10-31T02:09:06.537Z,84.24
2022-10-31T02:11:36.973Z,83.99
2022-10-31T02:14:07.049Z,83.80
2022-10-31T02:16:35.433Z,83.73
2022-10-31T02:19:07.821Z,83.56
2022-10-31T02:21:44.914Z,83.77
2022-10-31T02:24:46.805Z,83.86
2022-10-31T02:27:52.793Z,83.73
2022-10-31T02:30:25.030Z,84.13
2022-10-31T02:33:17.122Z,84.15
2022-10-31T02:35:57.878Z,84.24
2022-10-31T02:38:37.845Z,84.19
2022-10-31T02:41:19.108Z,84.24
2022-10-31T02:44:02.672Z,84.15
2022-10-31T02:46:37.429Z,84.27
2022-10-31T02:49:17.358Z,84.07
2022-10-31T02:51:46.121Z,84.05
2022-10-31T02:54:21.989Z,83.51
2022-10-31T02:57:00.237Z,83.63
2022-10-31T02:59:31.872Z,83.71
2022-10-31T03:02:18.326Z,83.71
2022-10-31T03:05:01.043Z,83.65
2022-10-31T03:07:39.877Z,83.55
2022-10-31T03:10:19.939Z,83.44
2022-10-31T03:12:59.255Z,83.22
2022-10-31T03:15:31.631Z,83.41
2022-10-31T03:18:06.816Z,83.29
2022-10-31T03:20:41.809Z,83.18
2022-10-31T03:23:14.633Z,83.19
2022-10-31T03:25:44.265Z,83.20
2022-10-31T03:28:14.914Z,83.16
2022-10-31T03:30:46.544Z,83.25
2022-10-31T03:33:19.030Z,83.11
2022-10-31T03:35:52.965Z,83.06
2022-10-31T03:38:22.392Z,83.19
2022-10-31T03:40:54.016Z,83.03
2022-10-31T03:43:27.186Z,82.87
2022-10-31T03:45:55.805Z,82.86
2022-10-31T03:48:24.923Z,83.12
2022-10-31T03:51:05.607Z,83.24
2022-10-31T03:53:39.830Z,83.50
2022-10-31T03:56:14.914Z,83.45
2022-10-31T03:58:47.507Z,83.65
2022-10-31T04:01:19.339Z,83.55
2022-10-31T04:03:48.729Z,83.46
2022-10-31T04:06:21.115Z,83.27
2022-10-31T04:08:53.286Z,83.21
2022-10-31T04:11:26.868Z,82.94
2022-10-31T04:14:17.989Z,83.15
2022-10-31T04:16:47.807Z,83.09
2022-10-31T04:19:16.986Z,82.90
2022-10-31T04:21:46.725Z,83.13
2022-10-31T04:24:14.969Z,82.71
2022-10-31T04:26:43.257Z,83.09
2022-10-31T04:29:11.540Z,83.13
2022-10-31T04:31:40.177Z,82.86
2022-10-31T04:34:09.245Z,82.95
2022-10-31T04:36:37.669Z,82.96
2022-10-31T04:39:07.417Z,82.82
2022-10-31T04:41:48.031Z,82.87
2022-10-31T04:44:17.443Z,82.79
2022-10-31T04:46:49.125Z,82.88
2022-10-31T04:49:17.552Z,82.81
2022-10-31T04:51:46.917Z,82.83
2022-10-31T04:54:17.226Z,82.54
2022-10-31T04:57:17.736Z,82.96
2022-10-31T04:59:46.693Z,82.80
2022-10-31T05:02:15.100Z,82.92
2022-10-31T05:04:56.289Z,82.89
2022-10-31T05:07:24.792Z,82.71
2022-10-31T05:09:54.472Z,82.86
2022-10-31T05:12:22.846Z,82.82
2022-10-31T05:15:17.787Z,82.77
2022-10-31T05:18:05.063Z,82.69
2022-10-31T05:20:52.184Z,82.99
2022-10-31T05:23:31.494Z,82.98
2022-10-31T05:26:01.189Z,82.86
2022-10-31T05:28:29.581Z,82.95
2022-10-31T05:30:57.940Z,82.99
2022-10-31T05:33:26.331Z,82.50
2022-10-31T05:36:12.944Z,82.80
2022-10-31T05:38:50.792Z,82.42
2022-10-31T05:41:27.309Z,82.28
2022-10-31T05:44:04.672Z,82.13
2022-10-31T05:46:36.981Z,81.95
2022-10-31T05:49:34.054Z,81.92
2022-10-31T05:52:05.829Z,81.84
2022-10-31T05:54:43.147Z,81.80
2022-10-31T05:57:12.846Z,81.51
2022-10-31T05:59:41.106Z,81.59
2022-10-31T06:02:09.883Z,81.48
2022-10-31T06:04:56.952Z,81.74
2022-10-31T06:07:25.390Z,81.57
2022-10-31T06:09:54.180Z,81.63
2022-10-31T06:12:25.062Z,81.50
2022-10-31T06:15:31.659Z,81.82
2022-10-31T06:18:05.492Z,81.69
2022-10-31T06:20:48.065Z,81.65
2022-10-31T06:23:17.465Z,81.60
2022-10-31T06:25:51.033Z,81.12
2022-10-31T06:28:20.872Z,81.31
2022-10-31T06:30:54.355Z,81.54
2022-10-31T06:33:23.530Z,81.49
2022-10-31T06:35:59.675Z,81.49
2022-10-31T06:38:28.823Z,81.20
2022-10-31T06:40:57.878Z,81.14
2022-10-31T06:43:30.949Z,81.16
2022-10-31T06:46:22.639Z,81.12
2022-10-31T06:49:09.912Z,81.19
2022-10-31T06:51:58.513Z,80.99
2022-10-31T06:54:26.862Z,80.65
2022-10-31T06:56:56.095Z,80.75
2022-10-31T06:59:26.358Z,80.52
2022-10-31T07:02:07.816Z,80.59
2022-10-31T07:04:36.661Z,80.38
2022-10-31T07:07:05.165Z,80.34
2022-10-31T07:09:34.529Z,80.12
2022-10-31T07:12:05.718Z,79.91
2022-10-31T07:14:39.441Z,79.86
2022-10-31T07:17:08.794Z,79.58
2022-10-31T07:19:41.142Z,79.60
2022-10-31T07:22:10.817Z,79.30
2022-10-31T07:24:40.500Z,79.40
2022-10-31T07:27:27.402Z,79.33
2022-10-31T07:29:57.225Z,79.51
2022-10-31T07:32:25.477Z,79.40
2022-10-31T07:34:58.634Z,79.28
2022-10-31T07:37:35.408Z,79.26
2022-10-31T07:40:04.062Z,79.37
2022-10-31T07:42:37.192Z,79.42
2022-10-31T07:45:09.168Z,79.21
2022-10-31T07:48:12.529Z,79.45
2022-10-31T07:50:59.493Z,79.27
2022-10-31T07:53:48.072Z,79.10
2022-10-31T07:56:29.690Z,78.96
2022-10-31T07:58:58.182Z,78.61
2022-10-31T08:01:27.809Z,78.50
2022-10-31T08:04:16.053Z,78.83
2022-10-31T08:07:03.398Z,78.87
2022-10-31T08:09:36.360Z,79.01
2022-10-31T08:12:12.239Z,79.01
2022-10-31T08:14:40.612Z,79.06
2022-10-31T08:17:10.600Z,79.19
2022-10-31T08:19:48.653Z,79.50
2022-10-31T08:22:18.226Z,79.84
2022-10-31T08:24:46.507Z,79.99
2022-10-31T08:27:14.753Z,79.46
2022-10-31T08:29:43.091Z,79.30
2022-10-31T08:32:12.812Z,79.01
2022-10-31T08:34:59.884Z,79.03
2022-10-31T08:37:43.679Z,79.10
2022-10-31T08:40:14.188Z,79.01
2022-10-31T08:42:42.592Z,79.20
2022-10-31T08:45:11.967Z,78.73
2022-10-31T08:47:41.696Z,78.91
2022-10-31T08:50:10.607Z,79.07
2022-10-31T08:53:03.740Z,79.01
2022-10-31T08:55:28.656Z,79.08
2022-10-31T08:58:06.589Z,78.95
2022-10-31T09:00:48.157Z,79.42
2022-10-31T09:03:22.708Z,79.38
2022-10-31T09:05:51.795Z,79.44
2022-10-31T09:08:20.118Z,79.42
2022-10-31T09:10:49.804Z,79.27
2022-10-31T09:13:27.992Z,79.27
2022-10-31T09:16:28.886Z,79.96
2022-10-31T09:18:58.651Z,80.29
2022-10-31T09:21:27.175Z,80.25
2022-10-31T09:23:55.462Z,80.38
2022-10-31T09:26:24.656Z,80.53
2022-10-31T09:29:19.026Z,81.19
2022-10-31T09:31:51.699Z,81.15
2022-10-31T09:34:36.779Z,81.14
2022-10-31T09:37:08.119Z,81.33
2022-10-31T09:39:37.294Z,81.61
2022-10-31T09:42:39.955Z,81.47
2022-10-31T09:45:21.017Z,81.53
2022-10-31T09:48:04.453Z,81.54
2022-10-31T09:50:42.052Z,81.99
2022-10-31T09:53:41.911Z,82.38
2022-10-31T09:56:15.895Z,82.95
2022-10-31T09:58:46.924Z,83.36
2022-10-31T10:01:28.388Z,83.23
2022-10-31T10:04:01.722Z,83.01
2022-10-31T10:06:54.795Z,83.03
2022-10-31T10:09:41.148Z,82.68
2022-10-31T10:12:50.481Z,81.99
2022-10-31T10:15:38.952Z,81.63
2022-10-31T10:18:16.465Z,81.39
2022-10-31T10:20:54.391Z,81.35
2022-10-31T10:23:40.658Z,80.95
2022-10-31T10:26:20.801Z,79.68
2022-10-31T10:28:54.203Z,80.27
2022-10-31T10:31:26.763Z,79.42
2022-10-31T10:34:03.653Z,78.71
2022-10-31T10:36:39.858Z,78.33
2022-10-31T10:39:16.603Z,77.77
2022-10-31T10:42:03.165Z,77.44
2022-10-31T10:44:48.719Z,77.18
2022-10-31T10:47:34.277Z,77.76
2022-10-31T10:50:09.120Z,77.24
2022-10-31T10:52:50.191Z,77.03
2022-10-31T10:55:31.579Z,76.77
2022-10-31T10:58:03.764Z,76.93
2022-10-31T11:00:34.271Z,76.93
2022-10-31T11:03:03.112Z,77.01
2022-10-31T11:05:41.303Z,76.55
2022-10-31T11:08:10.159Z,75.99
2022-10-31T11:10:39.885Z,75.10
2022-10-31T11:13:24.368Z,74.58
2022-10-31T11:15:57.698Z,74.33
2022-10-31T11:18:28.794Z,73.83
2022-10-31T11:20:58.821Z,73.37
2022-10-31T11:23:28.328Z,73.09
2022-10-31T11:26:00.026Z,73.37
2022-10-31T11:28:30.390Z,73.01
2022-10-31T11:31:00.843Z,72.69
2022-10-31T11:33:34.458Z,72.80
2022-10-31T11:36:04.371Z,72.72
2022-10-31T11:38:37.282Z,72.97
2022-10-31T11:41:15.248Z,72.93
2022-10-31T11:43:51.948Z,73.13
2022-10-31T11:46:24.037Z,73.25
2022-10-31T11:48:56.672Z,73.16
2022-10-31T11:51:28.404Z,73.18
2022-10-31T11:54:02.680Z,73.12
2022-10-31T11:56:42.120Z,72.47
2022-10-31T11:59:20.946Z,72.61
2022-10-31T12:01:51.736Z,72.51
2022-10-31T12:04:20.541Z,72.47
2022-10-31T12:06:51.110Z,72.35
2022-10-31T12:09:24.199Z,71.98
2022-10-31T12:12:10.042Z,72.53
2022-10-31T12:14:46.526Z,72.72
2022-10-31T12:17:19.130Z,72.40
2022-10-31T12:20:00.762Z,72.58
2022-10-31T12:22:39.464Z,72.69
2022-10-31T12:25:23.548Z,72.46
2022-10-31T12:28:14.946Z,71.85
2022-10-31T12:30:55.628Z,71.20
2022-10-31T12:33:48.227Z,71.32
2022-10-31T12:36:28.005Z,72.07
2022-10-31T12:39:17.352Z,72.45
2022-10-31T12:41:53.320Z,71.89
2022-10-31T12:44:42.964Z,71.92
2022-10-31T12:47:36.501Z,71.83
2022-10-31T12:50:22.342Z,72.00
2022-10-31T12:53:03.151Z,71.84
2022-10-31T12:55:43.733Z,72.10
2022-10-31T12:58:19.647Z,72.50
2022-10-31T13:00:53.296Z,72.48
2022-10-31T13:03:34.721Z,72.14
2022-10-31T13:06:09.446Z,72.47
2022-10-31T13:08:43.982Z,72.27
2022-10-31T13:11:19.358Z,72.31
2022-10-31T13:13:54.507Z,72.33
2022-10-31T13:16:28.053Z,71.75
2022-10-31T13:19:01.137Z,71.78
2022-10-31T13:21:38.526Z,71.10
2022-10-31T13:24:14.539Z,71.46
2022-10-31T13:26:48.343Z,71.61
2022-10-31T13:29:23.839Z,71.82
2022-10-31T13:31:56.314Z,72.10
2022-10-31T13:34:31.051Z,71.59
2022-10-31T13:37:08.073Z,71.14
2022-10-31T13:40:04.609Z,71.20
2022-10-31T13:42:47.970Z,72.04
2022-10-31T13:45:21.463Z,72.07
2022-10-31T13:48:01.280Z,71.67
2022-10-31T13:50:31.339Z,71.96
2022-10-31T13:53:23.608Z,71.59
2022-10-31T13:56:05.147Z,71.43
2022-10-31T13:58:34.196Z,71.45
2022-10-31T14:01:14.778Z,71.94
2022-10-31T14:04:11.136Z,71.80
2022-10-31T14:06:43.296Z,71.83
2022-10-31T14:09:33.044Z,71.82
2022-10-31T14:12:06.004Z,72.10
2022-10-31T14:14:47.512Z,72.36
2022-10-31T14:17:22.334Z,72.36
2022-10-31T14:20:25.004Z,72.84
2022-10-31T14:22:55.033Z,72.90
2022-10-31T14:25:41.329Z,72.95
2022-10-31T14:28:22.786Z,73.18
2022-10-31T14:30:55.260Z,73.21
2022-10-31T14:33:26.300Z,73.51
2022-10-31T14:36:02.779Z,73.46
2022-10-31T14:38:57.082Z,73.36
2022-10-31T14:41:47.590Z,73.59
2022-10-31T14:44:47.665Z,73.74
2022-10-31T14:47:25.718Z,74.26
2022-10-31T14:50:13.214Z,74.28
2022-10-31T14:52:43.235Z,74.46
2022-10-31T14:55:15.613Z,74.62
2022-10-31T14:57:53.268Z,74.19
2022-10-31T15:00:23.242Z,74.02
2022-10-31T15:03:02.627Z,73.55
2022-10-31T15:05:32.507Z,73.86
2022-10-31T15:08:01.208Z,73.83
2022-10-31T15:10:33.252Z,73.71
2022-10-31T15:13:11.715Z,74.01
2022-10-31T15:15:42.385Z,74.19
2022-10-31T15:18:19.395Z,74.38
2022-10-31T15:20:48.586Z,74.50
2022-10-31T15:23:22.923Z,74.62
2022-10-31T15:25:52.980Z,74.92
2022-10-31T15:28:26.607Z,74.91
2022-10-31T15:30:56.733Z,74.85
2022-10-31T15:33:28.006Z,75.13
2022-10-31T15:36:01.580Z,74.74
2022-10-31T15:38:31.301Z,74.83
2022-10-31T15:41:03.996Z,74.84
2022-10-31T15:43:41.416Z,74.64
2022-10-31T15:46:11.566Z,74.62
2022-10-31T15:48:41.657Z,74.72
2022-10-31T15:51:10.067Z,74.83
2022-10-31T15:53:43.961Z,74.86
2022-10-31T15:56:16.211Z,75.33
2022-10-31T15:58:48.840Z,76.64
2022-10-31T16:01:25.609Z,77.51
2022-10-31T16:04:06.580Z,78.17
2022-10-31T16:06:36.451Z,78.72
2022-10-31T16:09:06.259Z,79.18
2022-10-31T16:11:39.316Z,79.15
2022-10-31T16:14:25.349Z,79.35
2022-10-31T16:16:55.660Z,79.53
2022-10-31T16:19:26.520Z,79.90
2022-10-31T16:21:57.779Z,79.88
2022-10-31T16:24:29.451Z,79.89
2022-10-31T16:27:04.936Z,79.71
2022-10-31T16:29:38.528Z,79.91
2022-10-31T16:32:07.828Z,80.09
2022-10-31T16:34:36.126Z,80.05
2022-10-31T16:37:04.571Z,80.05
2022-10-31T16:39:32.789Z,80.18
2022-10-31T16:42:02.512Z,79.97
2022-10-31T16:44:31.842Z,80.39
2022-10-31T16:47:14.597Z,80.02
2022-10-31T16:49:43.622Z,80.43
2022-10-31T16:52:12.014Z,80.58
2022-10-31T16:54:40.356Z,80.42
2022-10-31T16:57:16.360Z,80.45
2022-10-31T16:59:45.839Z,80.31
2022-10-31T17:02:17.146Z,79.93
2022-10-31T17:04:47.584Z,80.07
2022-10-31T17:07:17.975Z,80.43
2022-10-31T17:09:46.192Z,80.49
2022-10-31T17:12:21.021Z,80.34
2022-10-31T17:14:52.850Z,80.36
2022-10-31T17:17:21.167Z,80.46
2022-10-31T17:19:49.338Z,80.68
2022-10-31T17:22:17.582Z,80.63
2022-10-31T17:24:45.864Z,80.73
2022-10-31T17:27:14.043Z,80.91
2022-10-31T17:29:43.737Z,81.00
2022-10-31T17:32:11.991Z,80.81
2022-10-31T17:34:40.144Z,80.75
2022-10-31T17:37:09.420Z,80.82
2022-10-31T17:39:37.652Z,80.62
2022-10-31T17:42:06.058Z,80.66
2022-10-31T17:44:34.282Z,80.68
2022-10-31T17:47:03.943Z,80.96
2022-10-31T17:49:32.084Z,81.06
2022-10-31T17:52:00.300Z,81.48
2022-10-31T17:54:28.486Z,81.63
2022-10-31T17:56:56.781Z,82.00
2022-10-31T17:59:24.926Z,82.28
2022-10-31T18:01:53.338Z,82.76
2022-10-31T18:04:24.070Z,82.69
2022-10-31T18:06:53.589Z,82.86
2022-10-31T18:09:22.003Z,82.79
2022-10-31T18:11:50.250Z,83.03
2022-10-31T18:14:18.458Z,82.78
2022-10-31T18:16:46.682Z,82.83
2022-10-31T18:19:16.456Z,82.60
2022-10-31T18:21:46.883Z,82.37
2022-10-31T18:24:15.193Z,82.68
2022-10-31T18:26:43.366Z,82.78
2022-10-31T18:29:11.771Z,83.05
2022-10-31T18:31:40.925Z,83.36
2022-10-31T18:34:10.338Z,83.61
2022-10-31T18:36:38.543Z,83.82
2022-10-31T18:39:08.156Z,83.74
2022-10-31T18:41:38.269Z,83.81
2022-10-31T18:44:07.107Z,84.13
2022-10-31T18:46:36.436Z,84.01
2022-10-31T18:49:05.943Z,84.08
2022-10-31T18:51:34.453Z,83.91
2022-10-31T18:54:02.969Z,83.98
2022-10-31T18:56:33.616Z,83.92
2022-10-31T18:59:03.314Z,84.10
2022-10-31T19:01:32.073Z,83.92
2022-10-31T19:04:00.729Z,83.89
2022-10-31T19:06:30.987Z,83.85
2022-10-31T19:09:00.690Z,83.58
2022-10-31T19:11:29.210Z,83.75
2022-10-31T19:13:59.703Z,83.57
2022-10-31T19:16:29.430Z,83.43
2022-10-31T19:19:00.141Z,83.47
2022-10-31T19:21:30.497Z,83.52
2022-10-31T19:23:59.323Z,83.38
2022-10-31T19:26:28.655Z,83.46
2022-10-31T19:28:57.732Z,83.46
2022-10-31T19:31:28.402Z,83.50
2022-10-31T19:33:56.639Z,83.70
2022-10-31T19:36:25.364Z,83.56
2022-10-31T19:38:55.188Z,83.58
2022-10-31T19:41:26.201Z,83.33
2022-10-31T19:43:55.318Z,83.26
2022-10-31T19:46:48.219Z,83.09
2022-10-31T19:49:14.745Z,83.07
2022-10-31T19:51:42.902Z,83.03
2022-10-31T19:54:11.991Z,83.13
2022-10-31T19:56:40.208Z,82.80
2022-10-31T19:59:08.366Z,82.71
2022-10-31T20:01:36.752Z,82.86
2022-10-31T20:04:05.268Z,82.54
2022-10-31T20:06:37.818Z,82.18
2022-10-31T20:09:08.479Z,82.40
2022-10-31T20:11:39.096Z,82.23
2022-10-31T20:14:08.250Z,82.36
2022-10-31T20:16:36.425Z,82.19
2022-10-31T20:19:05.414Z,82.31
2022-10-31T20:21:38.361Z,81.84
2022-10-31T20:24:08.922Z,82.05
2022-10-31T20:26:38.079Z,81.91
2022-10-31T20:29:06.617Z,81.88
2022-10-31T20:31:37.360Z,82.05
2022-10-31T20:34:05.728Z,81.76
2022-10-31T20:36:36.760Z,81.56
2022-10-31T20:39:06.468Z,81.56
2022-10-31T20:41:37.927Z,81.54
2022-10-31T20:44:06.662Z,81.38
2022-10-31T20:46:34.966Z,81.55
2022-10-31T20:49:03.847Z,81.33
2022-10-31T20:51:32.504Z,81.42
2022-10-31T20:54:02.497Z,81.31
2022-10-31T20:56:30.758Z,81.30
2022-10-31T20:58:59.611Z,81.42
2022-10-31T21:01:29.953Z,81.42
2022-10-31T21:03:59.482Z,81.32
2022-10-31T21:06:29.641Z,81.08
2022-10-31T21:08:58.604Z,81.33
2022-10-31T21:11:29.110Z,81.36
2022-10-31T21:13:59.604Z,81.08
2022-10-31T21:16:29.817Z,81.13
2022-10-31T21:18:58.609Z,81.35
2022-10-31T21:21:32.199Z,81.38
2022-10-31T21:24:03.082Z,81.59
2022-10-31T21:26:35.563Z,81.74
2022-10-31T21:29:05.720Z,81.82
2022-10-31T21:31:35.875Z,81.56
2022-10-31T21:34:04.581Z,81.54
2022-10-31T21:36:33.083Z,81.33
2022-10-31T21:39:01.857Z,81.58
2022-10-31T21:41:30.115Z,81.73
2022-10-31T21:44:00.084Z,81.63
2022-10-31T21:46:29.886Z,81.58
2022-10-31T21:48:58.632Z,81.35
2022-10-31T21:51:29.092Z,81.48
2022-10-31T21:54:15.473Z,81.42
2022-10-31T21:56:44.267Z,81.23
2022-10-31T21:59:13.870Z,81.40
2022-10-31T22:01:42.410Z,81.16
2022-10-31T22:04:10.715Z,80.89
2022-10-31T22:06:39.300Z,80.92
2022-10-31T22:09:09.135Z,80.87
2022-10-31T22:11:37.430Z,80.54
2022-10-31T22:14:06.219Z,80.31
2022-10-31T22:16:37.483Z,80.26
2022-10-31T22:19:07.617Z,80.25
2022-10-31T22:21:41.539Z,80.11
2022-10-31T22:24:11.322Z,80.26
2022-10-31T22:26:40.161Z,79.72
2022-10-31T22:29:13.107Z,80.07
2022-10-31T22:31:44.241Z,79.75
2022-10-31T22:34:15.233Z,79.91
2022-10-31T22:36:44.160Z,79.77
2022-10-31T22:39:13.867Z,79.64
2022-10-31T22:41:42.293Z,79.83
2022-10-31T22:44:10.686Z,79.70
2022-10-31T22:46:40.675Z,79.56
2022-10-31T22:49:14.707Z,79.28
2022-10-31T22:51:44.097Z,79.40
2022-10-31T22:54:14.637Z,79.48
2022-10-31T22:56:44.084Z,79.44
2022-10-31T22:59:13.608Z,79.72
2022-10-31T23:01:42.408Z,79.80
2022-10-31T23:06:45.630Z,80.00
2022-10-31T23:09:16.509Z,79.85
2022-10-31T23:11:45.438Z,80.46
2022-10-31T23:14:16.323Z,80.34
2022-10-31T23:16:48.174Z,80.24
2022-10-31T23:19:22.651Z,80.17
2022-10-31T23:27:54.943Z,80.78
2022-10-31T23:29:32.763Z,81.29
2022-10-31T23:32:00.936Z,81.48
2022-10-31T23:34:30.718Z,81.31
2022-10-31T23:36:59.151Z,81.48
2022-10-31T23:39:27.371Z,81.52
2022-10-31T23:41:55.503Z,81.22
2022-10-31T23:44:23.663Z,81.50
2022-10-31T23:46:51.933Z,81.17
2022-10-31T23:49:20.095Z,81.10
2022-10-31T23:51:49.757Z,80.62
2022-10-31T23:54:18.144Z,80.56
2022-10-31T23:56:46.287Z,80.61
2022-10-31T23:59:14.729Z,80.61
